Strona główna
METAR-TAF:

METAR-TAF

Lotnisko :

Port lotniczy Hemavan

Hemavan, Szwecja

Szerokość geograficzna: 65-48-22N, Długość geograficzna: 015-04-58E, wysokość: 458 m

Aktualna obserwacja pogody

Raport powstał 38 minut temu, godzina 08:20 UTC
Wiatr 12 kt od południowo-południowy wschód
Temperatura -9°C
Wilgotność 73%
Ciśnienie 1004 hPa
Widzialność: 9000 m
słaby śnieg

METAR: ESUT 200820Z AUTO 16012KT 9000 -SN ///041/// M09/M13 Q1004

czas: 09:58 (08:58 UTC)


TAF: brakujący

Obserwacja i prognoza pogody dla ponad 4000 lotnisk (raport METAR i TAF).

Dostępne stacje oznaczono żółtymi i czerwonymi punktami na mapie.

Najedź kursorem aby zobaczyć nazwę stacji.

Kliknij aby zobaczyć obserwacje i prognozy pogody.

Aby zmienić mapę: kliknij na zielony przycisk z czarnym krzyżykiem, aby powiększyć; na zielony przycisk z myślnikiem, aby pomniejszyć; na zielone strzałki, aby przejść do map sąsiednich.


METAR-TAF: